Lone Mountain, TN

12:22 AM EDT die 29o March, anno 2015 (GMT -0400)
Middlesboro | | Change Station
CLOSE
Current Station
Airport
Location: Middlesboro,
Elevation: 1155 ft
Nearby Weather Stations
Active Advisory: Hard Freeze Warning

Elev 1155 ft 36.61 °N, 83.74 °W | Updated 7 minutes ago

Serena
Serena
28 °F
Feels Like 28 °F
N
0
Ventus Variabilis Ventus from Aquilo

Hodie
High -- | Low -- °F
--% Chance of Precip.
Yesterday
High -- | Low -- °F
Precip. -- in
7:25 AM 7:53 PM
Waxing Gibbous, 68% visible
Pressio 30.33 in
Visibilitas 10.0 milia passuum
Clouds Serena
Frigus in quo Ros apparet 20 °F
Umor 71%
Rainfall 0.00 in
Snow Depth Not available.
UV 0 out of 12
Pollen 7.80 out of 12
Air Quality Not available.
Flu Activity Not available.
METAR K1A6 290415Z AUTO 00000KT 10SM CLR M02/M07 A3033 RMK AO2 T10201067

More Conditions Fewer Conditions

Pressio 30.33 in
Visibilitas 10.0 milia passuum
Clouds Serena
Frigus in quo Ros apparet 20 °F
Umor 71%
Rainfall 0.00 in
Snow Depth Not available.
UV 0 out of 12
Pollen 7.80 out of 12
Air Quality Not available.
Flu Activity Not available.
METAR K1A6 290415Z AUTO 00000KT 10SM CLR M02/M07 A3033 RMK AO2 T10201067

More Conditions Fewer Conditions

10-Day Weather Forecast

Almanac

Astronomy

Mar. 29, 2015 Rise Set
Actual Time
Civil Twilight
Nautical Twilight
Astronomical Twilight
Moon
Length Of Visible Light
Length of Day
Tomorrow will be .
, % of the Moon is Illuminated

Today's Extremes

State Highs State Lows

Community

WunderPhotos

Upload Photos

1,809,185 photos uploaded!

WunderBlogs® & News

Nearby

Air Quality

  Air Quality AQ Index Pollutant
Not available.

Snow Depth

Station Depth Elevation

Earthquake Activity

City Distance Mag. Time & Date
Minimum magnitude displayed is 2.5.

Coastal Water Temperatures

Locus Calor

Stations

Nearby Weather Stations

Station Location Temp Frigus Venti Frigus in quo Ros apparet Umor Ventus Precip. Elev Renovata Type
                   
Hard Freeze Warning
Statement as of 09:15 PM EDT die 28o March, anno 2015

... Hard freeze warning remains in effect until 11 am EDT /10 am
CDT/ Sunday...

* event... a hard freeze expected with lows from the teens north
to the upper 20s south late tonight and Sunday morning.

* Timing... temperatures falling at or below 28 degrees between
midnight tonight and mid-morning Sunday. Temperatures will
remain below 28 degrees for 2 to 5 hours tonight.

* Impacts... the prolonged period of freezing temperatures could
kill Strawberry plants and blooms of any fruit trees in the
warning area.

Precautionary/preparedness actions...

A hard freeze warning means sub-freezing temperatures are
imminent or highly likely. These conditions will kill crops and
other sensitive vegetation.